Daytona Beach International Airport
KDAB : now visible

Aeroporto :











RITROVATECI SU...

 
LOGIN :

Iscrizione | Disclaimer

   EN    FR    IT 

 









Sommario :    VFR   VFR Marginale   IFR   IFR Intensivo   IFR Molto Intensivo
Visibilità : 
Base nubi : 
>= 8 km
>= 3000ft
5 / 8 km
1000 / 3000 ft
1500m / 5 km
500 / 1000 ft
800 / 1500m
200 / 500 ft
< 800m
< 200 ft
Simboli :   Temporali  Nebbia  Neve Forte  Precipitazioni Forti  Vento > 20 kt






- Altitudine del aeroporto : 34 ft
- Codice IATA : DAB


KDAB - Daytona Beach International

ULTIMO METAR :
  • 080553Z 00000KT 10SM BKN150 23/23 A3011 RMK AO2 SLP197 60006 T02280228 10244 20228 56010 $

METARs OBSOLETI :
  • 080453Z 23003KT 10SM BKN150 23/23 A3012 RMK AO2 SLP199 T02280228 403280228 $
  • 080353Z 23003KT 10SM BKN150 23/23 A3013 RMK AO2 SLP202 T02330233 $

TAF KDAB
Valido dal 08 a 06 ore il 09 a 06 ore UTC


080524Z 0806/0906 22003KT P6SM SCT250
FM081430 VRB04KT P6SM SCT035 SCT250
FM082000 10008KT P6SM VCTS FEW035CB SCT070 BKN250
FM090000 21005KT P6SM SCT050 SCT250
FIR KZJX / America del Nord



MetMap, La meteo Aeronautica in un colpo d'occhio ! - Copyright ORBIFLY Dicembre 2007 - Disclaimer

ORBIFLY MET'MAP TEAM :

Programmazione e sviluppo : Alexandra Zaïnal
Concezione : Baudouin d'Aumeries
Aiuto per la programmazione : Marc-Olivier Méhu
Supporto tecnico e logistico : Manuel Goepfert
Aiuto per la traduzione : Arnaldo La Scala

Contatto : metmap@orbifly.com




FONTI E CREDITI :

   NOAA       Earth
Advisory